航空気象通報

ウインドサーファーのための航空気象通報による風予報です。

9/30-10/1の航空気象通報(国内、海外)

2011年09月30日 23時25分48秒 | TAF

羽田空港
TAF RJTT 300842Z 3009/0112 23008KT 9999 FEW030 SCT050
      BECMG 3011/3013 35005KT
      BECMG 3021/3024 35018KT
      BECMG 0103/0106 08012KT
日本時間30日18-20時:230度から8ノットの風
20-22時:風が変化
22時-1日06時:350度から5ノットの風
06-09時:風が変化
09-12時:350度から18ノットの風
12-15時:風が変化
15-21時:080度から12ノットの風

富士山静岡空港
TAF RJNS 300842Z 3009/0112 25014KT 9999 FEW020 BKN030
      BECMG 0100/0103 12008KT
日本時間30日18時-1日09時:250度から14ノットの風
09-12時:風が変化
12-21時:120度から8ノットの風

福岡空港
TAF RJFF 300844Z 3009/0112 33011KT 9999 FEW020
日本時間30日18時-1日21時:330度から11ノットの風

那覇空港
TAF ROAH 300839Z 3009/0112 08007KT 9999 FEW020 BKN040
日本時間30日18時-1日21時:080度から7ノットの風

マウイのカフルイ空港
TAF PHOG 301134Z 3012/0112 04007KT P6SM FEW025 SCT050
     FM302100 04018G26KT P6SM FEW035 SCT050
     FM010600 05010KT P6SM FEW030 SCT050
ハワイ時間30日02-11時:040度から7ノットの風
11-20時:040度から18ノット、突風26ノット
20時-1日02時:050度から10ノットの風

サイパン空港
TAF PGSN 301127Z 3012/0112 08008KT P6SM VCSH FEW018 SCT060 BKN140
     FM302300 07011KT P6SM VCSH FEW020 SCT050
マリアナ時間30日22時-1日09時:080度から8ノットの風

09-22時:070度から11ノットの風

コメント
この記事をはてなブックマークに追加

9/29-9/30の航空気象通報(国内、海外)

2011年09月30日 00時14分07秒 | TAF

羽田空港
TAF RJTT 290837Z 2909/3012 19012KT 9999 FEW020
      BECMG 3003/3006 20022KT
      TEMPO 3003/3009 20022G32KT
      BECMG 3009/3012 36006KT
      TEMPO 3009/3012 SHRA
日本時間29日18時-30日12時:190度から12ノットの風
12-15時:風が変化
15-18時:200度から22ノットの風
18-21時:風が変化
21時:360度から6ノットの風

但し、30日18-21時の間:一時、

富士山静岡空港
TAF RJNS 290838Z 2909/3012 24008KT 9999 FEW030
      TEMPO 3003/3009 23018G28KT
日本時間29日18時-30日21時:240度から8ノットの風
但し、12-18時の間:一時、230度から18ノット、突風28ノット

福岡空港
TAF RJFF 290846Z 2909/3012 16013KT 9999 FEW020 SCT045
      BECMG 2918/2921 31006KT
      TEMPO 2918/2921 3000 SHRA
      BECMG 3000/3003 34016KT
日本時間29日18時-30日01時:160度から13ノットの風
03-06時:風が変化
06-09時:310度から6ノットの風
09-12時:風が変化
12-21時:340度から16ノットの風

那覇空港
TAF ROAH 290849Z 2909/3012 10006KT 9999 FEW020
      BECMG 2916/2918 08004KT
日本時間29日18時-30日01時:100度から6ノットの風
01-03時:風が変化
03-21時:080度から4ノットの風

マウイのカフルイ空港
TAF PHOG 291120Z 2912/3012 04010KT P6SM FEW030 BKN200
     FM292100 04015G23KT P6SM FEW035 SCT050
     FM300500 04010G15KT P6SM FEW030 SCT050
     FM300700 04008KT P6SM FEW030 SCT045
ハワイ時間29日02-11時:040度から10ノットの風
11-19時:040度から15ノット、突風23ノット
19-21時:040度から10ノット、突風15ノット
21時-30日02時:040度から8ノットの風

サイパン空港
TAF PGSN 291128Z 2912/3012 10006KT P6SM VCSH FEW018 SCT120
マリアナ時間29日22時-30日22時:100度から6ノットの風

コメント
この記事をはてなブックマークに追加

9/28-9/29の航空気象通報(国内、海外)

2011年09月28日 23時36分11秒 | TAF

羽田空港
TAF RJTT 280839Z 2809/2912 04012KT 9999 FEW010 BKN020
      BECMG 2900/2903 08006KT
      BECMG 2906/2909 18010KT
日本時間28日18時-29日09時:040度から12ノットの風
09-12時:風が変化
12-15時:080度から6ノットの風
15-18時:風が変化
18-21時:180度から10ノットの風

富士山静岡空港
TAF RJNS 280839Z 2809/2912 18005KT 9999 FEW030
      BECMG 2809/2811 30004KT
      BECMG 2900/2903 18008KT
      BECMG 2906/2909 23007KT
日本時間28日18時:180度から5ノットの風
18-20時:風が変化
20時-29日09時:300度から4ノット
09-12時:風が変化
12-15時:180度から8ノットの風
15-18時:風が変化
18-21時:230度から7ノットの風

福岡空港
TAF RJFF 280842Z 2809/2912 34006KT 9999 FEW030
      BECMG 2812/2814 14005KT
日本時間28日18-21時:340度から6ノットの風
21-23時:風が変化
23時-29日21時:140度から5ノットの風

那覇空港
TAF ROAH 280839Z 2809/2912 10007KT 9999 FEW015
日本時間28日18時-29日21時:100度から7ノットの風

マウイのカフルイ空港
TAF PHOG 281120Z 2812/2912 VRB05KT P6SM FEW030 BKN050
     FM282000 03014G22KT P6SM FEW035 BKN050
     FM290500 04010KT P6SM FEW030 SCT050
ハワイ時間28日02-10時:風向不定5ノットの風
10-19時:030度から14ノット、突風22ノット

19時-29日02時:040度から10ノットの風

サイパン空港
TAF PGSN 281126Z 2812/2912 10006KT P6SM VCSH FEW018 SCT050
     FM290000 09011KT P6SM VCSH SCT018 SCT050
マリアナ時間28日22時-29日10時:100度から6ノットの風
10-21時:090度から11ノットの風

コメント
この記事をはてなブックマークに追加

9/27-9/28の航空気象通報(国内、海外)

2011年09月27日 23時36分36秒 | TAF

羽田空港
TAF RJTT 270839Z 2709/2812 04014KT 9999 FEW030
日本時間27日18-28日21時:040度から14ノットの風

富士山静岡空港
TAF RJNS 270838Z 2709/2812 06006KT 9999 FEW030
      BECMG 2809/2812 01004KT
日本時間27日18時-28日18時:060度から6ノットの風
18-21時:風が変化
21時:010度から4ノットの風

福岡空港
TAF RJFF 270851Z 2709/2812 03007KT 9999 FEW035
      BECMG 2712/2714 12003KT
      BECMG 2803/2806 03008KT
日本時間27日18-21時:030度から7ノットの風
21-23時:風が変化
23時-28日12時:120度から3ノットの風
12-15時:風が変化
15-21時:030度から8ノットの風

那覇空港
TAF ROAH 270843Z 2709/2812 11006KT 9999 SCT015
日本時間27日18時-28日21時:110度から6ノットの風

マウイのカフルイ空港
TAF PHOG 271120Z 2712/2812 04007KT P6SM SCT045
     FM272000 04017G25KT P6SM FEW050
     FM280500 05010G16KT P6SM FEW045
     FM280800 05008KT P6SM SKC
ハワイ時間27日02-10時:040度から7ノットの風
10-19時:040度から17ノット、突風25ノット
19-22時:050度から10ノット、突風16ノット
22時-28日02時:050度から8ノットの風

サイパン空港
TAF PGSN 271120Z 2712/2812 10011KT P6SM VCSH SCT020 BKN120
      TEMPO 2714/2718 5SM -SHRA SCT015CB BKN025
マリアナ時間27日22時-28日22時:100度から11ノットの風

但し、28日00-04時の間:一時、

コメント
この記事をはてなブックマークに追加

9/26-9/27の航空気象通報(国内、海外)

2011年09月27日 00時11分03秒 | TAF

羽田空港
TAF RJTT 260841Z 2609/2712 02012KT 9999 FEW020 SCT060
日本時間26日18-26日21時:020度から12ノットの風

富士山静岡空港
TAF RJNS 260838Z 2609/2712 04005KT 9999 FEW020 BKN070
      BECMG 2610/2612 34004KT
      BECMG 2700/2703 09008KT
日本時間26日18-19時:040度から5ノットの風
19-21時:風が変化
21時-27日09時:340度から4ノットの風
09-12時:風が変化
12-21時:090度から8ノットの風

福岡空港
TAF RJFF 260844Z 2609/2712 05007KT 9999 FEW030
      BECMG 2613/2615 11004KT
      BECMG 2700/2703 04008KT
日本時間26日18-22時:050度から7ノットの風
22-24時:風が変化
26日00-09時:110度から4ノットの風
09-12時:風が変化
12-21時:040度から8ノットの風

那覇空港
TAF ROAH 260847Z 2609/2712 11007KT 9999 SCT015
日本時間26日18時-27日21時:110度から7ノットの風

マウイのカフルイ空港
TAF PHOG 261139Z 2612/2712 02005KT P6SM SKC
     FM262000 03015KT P6SM FEW040
     FM270400 04005KT P6SM SKC
ハワイ時間26日02-10時:020度から5ノットの風
10-18時:030度から15ノットの風
18時-27日02時:040度から5ノットの風

サイパン空港
TAF PGSN 261120Z 2612/2712 10011KT P6SM VCSH SCT018 SCT030 BKN110
マリアナ時間26日22時-27日22時:100度から11ノットの風

コメント
この記事をはてなブックマークに追加